sensor_id;sensor_type;location;lat;lon;timestamp;P1;durP1;ratioP1;P2;durP2;ratioP2
35592;SDS011;64447;52.140;5.602;2023-07-24T03:19:25;8.93;;;7.68;;
35592;SDS011;64447;52.140;5.602;2023-07-24T03:21:51;9.40;;;8.40;;
35592;SDS011;64447;52.140;5.602;2023-07-24T03:24:17;9.18;;;7.82;;
35592;SDS011;64447;52.140;5.602;2023-07-24T03:26:42;9.33;;;7.53;;
35592;SDS011;64447;52.140;5.602;2023-07-24T03:29:08;9.23;;;7.53;;
35592;SDS011;64447;52.140;5.602;2023-07-24T03:34:56;9.18;;;7.22;;
35592;SDS011;64447;52.140;5.602;2023-07-24T03:37:21;9.17;;;7.03;;
35592;SDS011;64447;52.140;5.602;2023-07-24T03:39:47;8.23;;;6.97;;
35592;SDS011;64447;52.140;5.602;2023-07-24T03:42:23;9.90;;;7.70;;
35592;SDS011;64447;52.140;5.602;2023-07-24T03:44:53;8.60;;;7.32;;
35592;SDS011;64447;52.140;5.602;2023-07-24T03:47:19;9.50;;;7.73;;
35592;SDS011;64447;52.140;5.602;2023-07-24T03:49:45;9.13;;;7.78;;
35592;SDS011;64447;52.140;5.602;2023-07-24T03:52:10;9.83;;;7.90;;
35592;SDS011;64447;52.140;5.602;2023-07-24T03:54:36;9.88;;;8.00;;
35592;SDS011;64447;52.140;5.602;2023-07-24T03:57:02;10.23;;;8.50;;
35592;SDS011;64447;52.140;5.602;2023-07-24T03:59:28;9.55;;;8.38;;
35592;SDS011;64447;52.140;5.602;2023-07-24T04:01:53;9.13;;;7.80;;
35592;SDS011;64447;52.140;5.602;2023-07-24T04:04:19;10.27;;;8.43;;
35592;SDS011;64447;52.140;5.602;2023-07-24T04:06:45;9.25;;;8.10;;
35592;SDS011;64447;52.140;5.602;2023-07-24T04:09:11;9.90;;;8.25;;
35592;SDS011;64447;52.140;5.602;2023-07-24T04:11:39;10.10;;;8.82;;
35592;SDS011;64447;52.140;5.602;2023-07-24T04:14:05;11.70;;;8.80;;
35592;SDS011;64447;52.140;5.602;2023-07-24T04:19:53;11.65;;;9.25;;
35592;SDS011;64447;52.140;5.602;2023-07-24T04:22:18;12.20;;;9.75;;
35592;SDS011;64447;52.140;5.602;2023-07-24T04:24:44;11.10;;;9.23;;
35592;SDS011;64447;52.140;5.602;2023-07-24T04:27:10;11.53;;;9.10;;
35592;SDS011;64447;52.140;5.602;2023-07-24T04:29:35;10.60;;;9.10;;
35592;SDS011;64447;52.140;5.602;2023-07-24T04:32:01;12.67;;;9.03;;
35592;SDS011;64447;52.140;5.602;2023-07-24T04:34:26;11.27;;;8.60;;
35592;SDS011;64447;52.140;5.602;2023-07-24T04:36:52;11.47;;;8.60;;
35592;SDS011;64447;52.140;5.602;2023-07-24T04:39:17;10.40;;;8.88;;
35592;SDS011;64447;52.140;5.602;2023-07-24T04:41:43;11.97;;;9.30;;
35592;SDS011;64447;52.140;5.602;2023-07-24T04:44:09;10.65;;;8.98;;
35592;SDS011;64447;52.140;5.602;2023-07-24T04:49:56;12.05;;;9.18;;
35592;SDS011;64447;52.140;5.602;2023-07-24T04:52:22;11.93;;;9.27;;
35592;SDS011;64447;52.140;5.602;2023-07-24T04:54:47;12.35;;;9.43;;
35592;SDS011;64447;52.140;5.602;2023-07-24T04:57:13;11.27;;;9.20;;
35592;SDS011;64447;52.140;5.602;2023-07-24T04:59:38;10.57;;;9.03;;
35592;SDS011;64447;52.140;5.602;2023-07-24T05:05:26;11.27;;;9.20;;
35592;SDS011;64447;52.140;5.602;2023-07-24T05:07:51;12.50;;;9.80;;
35592;SDS011;64447;52.140;5.602;2023-07-24T05:10:17;12.87;;;10.17;;
35592;SDS011;64447;52.140;5.602;2023-07-24T05:12:42;11.68;;;9.80;;
35592;SDS011;64447;52.140;5.602;2023-07-24T05:15:08;13.07;;;10.00;;
35592;SDS011;64447;52.140;5.602;2023-07-24T05:17:34;12.63;;;10.25;;
35592;SDS011;64447;52.140;5.602;2023-07-24T05:20:00;12.02;;;9.52;;
35592;SDS011;64447;52.140;5.602;2023-07-24T05:22:25;12.70;;;10.37;;
35592;SDS011;64447;52.140;5.602;2023-07-24T05:24:51;12.13;;;9.52;;
35592;SDS011;64447;52.140;5.602;2023-07-24T05:27:16;13.23;;;10.37;;
35592;SDS011;64447;52.140;5.602;2023-07-24T05:29:42;11.55;;;9.50;;
35592;SDS011;64447;52.140;5.602;2023-07-24T05:32:08;11.27;;;9.33;;
35592;SDS011;64447;52.140;5.602;2023-07-24T05:34:34;12.20;;;10.20;;
35592;SDS011;64447;52.140;5.602;2023-07-24T05:36:59;12.43;;;9.93;;
35592;SDS011;64447;52.140;5.602;2023-07-24T05:39:25;9.70;;;8.60;;
35592;SDS011;64447;52.140;5.602;2023-07-24T05:41:50;14.00;;;10.23;;
35592;SDS011;64447;52.140;5.602;2023-07-24T05:44:16;12.25;;;10.05;;
35592;SDS011;64447;52.140;5.602;2023-07-24T05:46:41;12.27;;;9.70;;
35592;SDS011;64447;52.140;5.602;2023-07-24T05:49:07;12.93;;;9.95;;
35592;SDS011;64447;52.140;5.602;2023-07-24T05:51:33;11.87;;;9.97;;
35592;SDS011;64447;52.140;5.602;2023-07-24T05:53:58;12.97;;;10.00;;
35592;SDS011;64447;52.140;5.602;2023-07-24T05:56:24;12.70;;;10.07;;
35592;SDS011;64447;52.140;5.602;2023-07-24T05:58:49;12.57;;;10.10;;
35592;SDS011;64447;52.140;5.602;2023-07-24T06:01:15;12.38;;;10.18;;
35592;SDS011;64447;52.140;5.602;2023-07-24T06:03:40;13.90;;;9.63;;
35592;SDS011;64447;52.140;5.602;2023-07-24T06:06:06;13.88;;;10.07;;
35592;SDS011;64447;52.140;5.602;2023-07-24T06:08:32;13.90;;;9.40;;
35592;SDS011;64447;52.140;5.602;2023-07-24T06:10:57;13.43;;;9.07;;
35592;SDS011;64447;52.140;5.602;2023-07-24T06:13:23;13.63;;;10.27;;
35592;SDS011;64447;52.140;5.602;2023-07-24T06:15:49;13.82;;;10.00;;
35592;SDS011;64447;52.140;5.602;2023-07-24T06:18:16;14.60;;;10.45;;
35592;SDS011;64447;52.140;5.602;2023-07-24T06:20:42;11.93;;;9.23;;
35592;SDS011;64447;52.140;5.602;2023-07-24T06:23:07;13.80;;;9.37;;
35592;SDS011;64447;52.140;5.602;2023-07-24T06:25:33;13.45;;;9.65;;
35592;SDS011;64447;52.140;5.602;2023-07-24T06:27:59;12.67;;;9.80;;
35592;SDS011;64447;52.140;5.602;2023-07-24T06:30:25;12.55;;;10.02;;
35592;SDS011;64447;52.140;5.602;2023-07-24T06:32:51;13.25;;;9.60;;
35592;SDS011;64447;52.140;5.602;2023-07-24T06:35:16;14.33;;;9.70;;
35592;SDS011;64447;52.140;5.602;2023-07-24T06:37:42;13.73;;;9.63;;
35592;SDS011;64447;52.140;5.602;2023-07-24T06:40:08;18.10;;;9.80;;
35592;SDS011;64447;52.140;5.602;2023-07-24T06:42:34;13.65;;;9.65;;
35592;SDS011;64447;52.140;5.602;2023-07-24T06:45:00;12.57;;;9.70;;
35592;SDS011;64447;52.140;5.602;2023-07-24T06:47:26;15.60;;;9.68;;
35592;SDS011;64447;52.140;5.602;2023-07-24T06:49:51;13.43;;;9.55;;
35592;SDS011;64447;52.140;5.602;2023-07-24T06:52:17;13.57;;;8.93;;
35592;SDS011;64447;52.140;5.602;2023-07-24T06:54:43;12.32;;;8.85;;
35592;SDS011;64447;52.140;5.602;2023-07-24T06:57:08;12.87;;;9.10;;
35592;SDS011;64447;52.140;5.602;2023-07-24T06:59:34;12.57;;;9.40;;
35592;SDS011;64447;52.140;5.602;2023-07-24T07:02:00;13.43;;;9.10;;
35592;SDS011;64447;52.140;5.602;2023-07-24T07:04:25;12.77;;;9.05;;
35592;SDS011;64447;52.140;5.602;2023-07-24T07:06:51;12.63;;;8.93;;
35592;SDS011;64447;52.140;5.602;2023-07-24T07:09:16;14.27;;;9.70;;
35592;SDS011;64447;52.140;5.602;2023-07-24T07:11:42;13.90;;;9.33;;
35592;SDS011;64447;52.140;5.602;2023-07-24T07:14:10;12.00;;;9.27;;
35592;SDS011;64447;52.140;5.602;2023-07-24T07:16:36;16.02;;;10.18;;
35592;SDS011;64447;52.140;5.602;2023-07-24T07:19:02;13.30;;;9.37;;
35592;SDS011;64447;52.140;5.602;2023-07-24T07:21:27;13.63;;;9.15;;
35592;SDS011;64447;52.140;5.602;2023-07-24T07:23:53;16.00;;;10.33;;
35592;SDS011;64447;52.140;5.602;2023-07-24T07:26:19;14.83;;;9.97;;
35592;SDS011;64447;52.140;5.602;2023-07-24T07:28:45;14.32;;;10.10;;
35592;SDS011;64447;52.140;5.602;2023-07-24T07:31:11;14.13;;;9.90;;
35592;SDS011;64447;52.140;5.602;2023-07-24T07:33:36;11.43;;;9.00;;
35592;SDS011;64447;52.140;5.602;2023-07-24T07:36:02;10.83;;;8.43;;
35592;SDS011;64447;52.140;5.602;2023-07-24T07:38:29;11.68;;;8.93;;
35592;SDS011;64447;52.140;5.602;2023-07-24T07:40:54;12.32;;;9.32;;
35592;SDS011;64447;52.140;5.602;2023-07-24T07:43:20;12.33;;;9.20;;
35592;SDS011;64447;52.140;5.602;2023-07-24T07:45:46;10.95;;;8.52;;
35592;SDS011;64447;52.140;5.602;2023-07-24T07:48:13;11.83;;;8.70;;
35592;SDS011;64447;52.140;5.602;2023-07-24T07:50:38;10.85;;;8.65;;
35592;SDS011;64447;52.140;5.602;2023-07-24T07:53:04;11.70;;;8.43;;
35592;SDS011;64447;52.140;5.602;2023-07-24T07:55:30;11.05;;;8.90;;
35592;SDS011;64447;52.140;5.602;2023-07-24T07:57:55;9.70;;;8.03;;
35592;SDS011;64447;52.140;5.602;2023-07-24T08:00:21;9.77;;;8.18;;
35592;SDS011;64447;52.140;5.602;2023-07-24T08:02:47;10.20;;;8.00;;
35592;SDS011;64447;52.140;5.602;2023-07-24T08:05:13;10.13;;;7.97;;
35592;SDS011;64447;52.140;5.602;2023-07-24T08:07:38;10.03;;;8.20;;
35592;SDS011;64447;52.140;5.602;2023-07-24T08:10:04;10.30;;;8.47;;
35592;SDS011;64447;52.140;5.602;2023-07-24T08:12:31;10.07;;;8.02;;
35592;SDS011;64447;52.140;5.602;2023-07-24T08:14:57;11.20;;;8.25;;
35592;SDS011;64447;52.140;5.602;2023-07-24T08:17:22;10.30;;;7.77;;
35592;SDS011;64447;52.140;5.602;2023-07-24T08:19:48;9.82;;;7.47;;
35592;SDS011;64447;52.140;5.602;2023-07-24T08:22:13;10.97;;;7.67;;
35592;SDS011;64447;52.140;5.602;2023-07-24T08:24:39;11.17;;;8.07;;
35592;SDS011;64447;52.140;5.602;2023-07-24T08:27:05;9.68;;;8.38;;
35592;SDS011;64447;52.140;5.602;2023-07-24T08:29:30;12.23;;;9.25;;
35592;SDS011;64447;52.140;5.602;2023-07-24T08:31:56;11.20;;;8.27;;
35592;SDS011;64447;52.140;5.602;2023-07-24T08:34:22;11.45;;;8.18;;
35592;SDS011;64447;52.140;5.602;2023-07-24T08:36:47;11.33;;;8.97;;
35592;SDS011;64447;52.140;5.602;2023-07-24T08:39:13;11.85;;;9.05;;
35592;SDS011;64447;52.140;5.602;2023-07-24T08:41:39;11.20;;;8.40;;
35592;SDS011;64447;52.140;5.602;2023-07-24T08:44:05;9.93;;;7.78;;
35592;SDS011;64447;52.140;5.602;2023-07-24T08:46:38;11.27;;;8.10;;
35592;SDS011;64447;52.140;5.602;2023-07-24T08:49:06;10.75;;;7.35;;
35592;SDS011;64447;52.140;5.602;2023-07-24T08:51:36;10.82;;;6.93;;
35592;SDS011;64447;52.140;5.602;2023-07-24T08:54:03;9.52;;;6.25;;
35592;SDS011;64447;52.140;5.602;2023-07-24T08:56:29;7.97;;;6.75;;
35592;SDS011;64447;52.140;5.602;2023-07-24T08:58:55;11.13;;;7.77;;
35592;SDS011;64447;52.140;5.602;2023-07-24T09:01:21;10.25;;;7.10;;
35592;SDS011;64447;52.140;5.602;2023-07-24T09:03:46;9.50;;;7.63;;
35592;SDS011;64447;52.140;5.602;2023-07-24T09:06:12;8.88;;;6.90;;
35592;SDS011;64447;52.140;5.602;2023-07-24T09:08:38;13.47;;;8.43;;
35592;SDS011;64447;52.140;5.602;2023-07-24T09:11:06;9.60;;;8.10;;
35592;SDS011;64447;52.140;5.602;2023-07-24T09:13:33;12.38;;;8.70;;
35592;SDS011;64447;52.140;5.602;2023-07-24T09:16:00;13.77;;;9.63;;
35592;SDS011;64447;52.140;5.602;2023-07-24T09:18:26;10.93;;;8.73;;
35592;SDS011;64447;52.140;5.602;2023-07-24T09:20:57;10.60;;;8.10;;
35592;SDS011;64447;52.140;5.602;2023-07-24T09:23:27;12.07;;;8.90;;
35592;SDS011;64447;52.140;5.602;2023-07-24T09:25:53;11.27;;;9.40;;
35592;SDS011;64447;52.140;5.602;2023-07-24T09:28:18;11.20;;;9.30;;
35592;SDS011;64447;52.140;5.602;2023-07-24T09:30:55;10.23;;;8.48;;
35592;SDS011;64447;52.140;5.602;2023-07-24T09:33:38;11.23;;;9.02;;
35592;SDS011;64447;52.140;5.602;2023-07-24T09:36:06;10.98;;;8.75;;
35592;SDS011;64447;52.140;5.602;2023-07-24T09:38:36;10.80;;;7.60;;
35592;SDS011;64447;52.140;5.602;2023-07-24T09:41:03;9.95;;;7.78;;
35592;SDS011;64447;52.140;5.602;2023-07-24T09:43:29;9.82;;;7.65;;
35592;SDS011;64447;52.140;5.602;2023-07-24T09:45:55;10.57;;;8.27;;
35592;SDS011;64447;52.140;5.602;2023-07-24T09:51:43;9.82;;;7.65;;
35592;SDS011;64447;52.140;5.602;2023-07-24T09:56:43;10.70;;;7.93;;
35592;SDS011;64447;52.140;5.602;2023-07-24T09:59:10;11.20;;;7.88;;
35592;SDS011;64447;52.140;5.602;2023-07-24T10:01:37;10.65;;;7.93;;
35592;SDS011;64447;52.140;5.602;2023-07-24T10:04:03;9.65;;;7.47;;
35592;SDS011;64447;52.140;5.602;2023-07-24T10:06:30;9.20;;;7.18;;
35592;SDS011;64447;52.140;5.602;2023-07-24T10:08:56;10.00;;;7.47;;
35592;SDS011;64447;52.140;5.602;2023-07-24T10:11:23;10.60;;;7.50;;
35592;SDS011;64447;52.140;5.602;2023-07-24T10:13:49;10.27;;;7.50;;
35592;SDS011;64447;52.140;5.602;2023-07-24T10:16:15;8.73;;;7.10;;
35592;SDS011;64447;52.140;5.602;2023-07-24T10:18:43;9.15;;;7.35;;
35592;SDS011;64447;52.140;5.602;2023-07-24T10:21:10;12.10;;;7.78;;
35592;SDS011;64447;52.140;5.602;2023-07-24T10:23:37;9.75;;;6.90;;
35592;SDS011;64447;52.140;5.602;2023-07-24T10:26:07;8.60;;;7.00;;
35592;SDS011;64447;52.140;5.602;2023-07-24T10:28:37;12.82;;;8.23;;
35592;SDS011;64447;52.140;5.602;2023-07-24T10:31:18;8.27;;;6.30;;
35592;SDS011;64447;52.140;5.602;2023-07-24T10:37:48;8.68;;;6.50;;
35592;SDS011;64447;52.140;5.602;2023-07-24T10:40:25;9.27;;;6.60;;
35592;SDS011;64447;52.140;5.602;2023-07-24T10:45:50;9.60;;;6.47;;
35592;SDS011;64447;52.140;5.602;2023-07-24T10:48:17;11.73;;;6.47;;
35592;SDS011;64447;52.140;5.602;2023-07-24T10:50:45;9.25;;;6.35;;
35592;SDS011;64447;52.140;5.602;2023-07-24T10:53:13;8.73;;;6.63;;
35592;SDS011;64447;52.140;5.602;2023-07-24T10:55:41;8.43;;;6.78;;
35592;SDS011;64447;52.140;5.602;2023-07-24T10:58:12;9.20;;;6.70;;
35592;SDS011;64447;52.140;5.602;2023-07-24T11:00:39;11.60;;;6.95;;
35592;SDS011;64447;52.140;5.602;2023-07-24T11:03:09;10.73;;;7.53;;
35592;SDS011;64447;52.140;5.602;2023-07-24T11:05:38;9.82;;;7.22;;
35592;SDS011;64447;52.140;5.602;2023-07-24T11:08:11;10.27;;;6.88;;
35592;SDS011;64447;52.140;5.602;2023-07-24T11:10:54;8.43;;;6.32;;
35592;SDS011;64447;52.140;5.602;2023-07-24T11:13:22;10.53;;;6.73;;
35592;SDS011;64447;52.140;5.602;2023-07-24T11:15:52;8.32;;;5.70;;
35592;SDS011;64447;52.140;5.602;2023-07-24T11:18:19;8.68;;;6.18;;
35592;SDS011;64447;52.140;5.602;2023-07-24T11:20:50;7.97;;;6.22;;
35592;SDS011;64447;52.140;5.602;2023-07-24T11:23:18;8.70;;;6.35;;
35592;SDS011;64447;52.140;5.602;2023-07-24T11:25:44;7.50;;;6.05;;
35592;SDS011;64447;52.140;5.602;2023-07-24T11:28:11;10.45;;;6.50;;
35592;SDS011;64447;52.140;5.602;2023-07-24T11:30:37;8.13;;;5.97;;
35592;SDS011;64447;52.140;5.602;2023-07-24T11:33:07;10.13;;;7.13;;
35592;SDS011;64447;52.140;5.602;2023-07-24T11:35:35;9.00;;;6.25;;
35592;SDS011;64447;52.140;5.602;2023-07-24T11:38:01;7.93;;;6.50;;
35592;SDS011;64447;52.140;5.602;2023-07-24T11:40:34;8.27;;;6.57;;
35592;SDS011;64447;52.140;5.602;2023-07-24T11:43:05;9.30;;;6.27;;
35592;SDS011;64447;52.140;5.602;2023-07-24T11:45:42;11.65;;;6.53;;
35592;SDS011;64447;52.140;5.602;2023-07-24T11:48:10;9.67;;;7.17;;
35592;SDS011;64447;52.140;5.602;2023-07-24T11:50:43;8.80;;;6.95;;
35592;SDS011;64447;52.140;5.602;2023-07-24T11:55:57;9.43;;;7.00;;
35592;SDS011;64447;52.140;5.602;2023-07-24T11:58:27;9.52;;;7.38;;
35592;SDS011;64447;52.140;5.602;2023-07-24T12:00:54;9.65;;;7.15;;
35592;SDS011;64447;52.140;5.602;2023-07-24T12:03:21;10.45;;;7.43;;
35592;SDS011;64447;52.140;5.602;2023-07-24T12:05:47;11.45;;;9.07;;
35592;SDS011;64447;52.140;5.602;2023-07-24T12:08:14;9.73;;;7.63;;
35592;SDS011;64447;52.140;5.602;2023-07-24T12:10:40;9.75;;;8.15;;
35592;SDS011;64447;52.140;5.602;2023-07-24T12:13:06;11.80;;;7.95;;
35592;SDS011;64447;52.140;5.602;2023-07-24T12:15:32;12.77;;;8.77;;
35592;SDS011;64447;52.140;5.602;2023-07-24T12:18:00;10.83;;;9.03;;
35592;SDS011;64447;52.140;5.602;2023-07-24T12:20:29;12.90;;;10.00;;
35592;SDS011;64447;52.140;5.602;2023-07-24T12:22:55;12.27;;;9.68;;
35592;SDS011;64447;52.140;5.602;2023-07-24T12:25:21;12.43;;;9.20;;
35592;SDS011;64447;52.140;5.602;2023-07-24T12:27:47;11.15;;;9.73;;
35592;SDS011;64447;52.140;5.602;2023-07-24T12:30:13;11.40;;;9.50;;
35592;SDS011;64447;52.140;5.602;2023-07-24T12:32:39;12.18;;;9.63;;
35592;SDS011;64447;52.140;5.602;2023-07-24T12:35:05;12.70;;;9.20;;
35592;SDS011;64447;52.140;5.602;2023-07-24T12:37:32;10.63;;;8.70;;
35592;SDS011;64447;52.140;5.602;2023-07-24T12:39:57;11.03;;;8.90;;
35592;SDS011;64447;52.140;5.602;2023-07-24T12:42:23;11.02;;;9.38;;
35592;SDS011;64447;52.140;5.602;2023-07-24T12:44:48;10.10;;;8.97;;
35592;SDS011;64447;52.140;5.602;2023-07-24T12:47:14;10.77;;;8.57;;
35592;SDS011;64447;52.140;5.602;2023-07-24T12:49:40;11.27;;;9.05;;
35592;SDS011;64447;52.140;5.602;2023-07-24T12:52:06;11.63;;;8.97;;
35592;SDS011;64447;52.140;5.602;2023-07-24T12:54:32;11.02;;;8.70;;
35592;SDS011;64447;52.140;5.602;2023-07-24T12:56:58;12.03;;;9.00;;
35592;SDS011;64447;52.140;5.602;2023-07-24T12:59:23;11.60;;;9.13;;
35592;SDS011;64447;52.140;5.602;2023-07-24T13:01:49;11.75;;;9.90;;
35592;SDS011;64447;52.140;5.602;2023-07-24T13:07:37;11.43;;;8.15;;
35592;SDS011;64447;52.140;5.602;2023-07-24T13:10:02;11.57;;;9.13;;
35592;SDS011;64447;52.140;5.602;2023-07-24T13:12:28;10.77;;;9.25;;
35592;SDS011;64447;52.140;5.602;2023-07-24T13:14:54;12.00;;;9.05;;
35592;SDS011;64447;52.140;5.602;2023-07-24T13:17:19;14.70;;;9.35;;
35592;SDS011;64447;52.140;5.602;2023-07-24T13:19:45;12.03;;;9.77;;
35592;SDS011;64447;52.140;5.602;2023-07-24T13:22:10;10.20;;;7.40;;
35592;SDS011;64447;52.140;5.602;2023-07-24T13:24:36;6.03;;;5.10;;
35592;SDS011;64447;52.140;5.602;2023-07-24T13:27:01;7.37;;;5.13;;
35592;SDS011;64447;52.140;5.602;2023-07-24T13:29:27;6.97;;;5.82;;
35592;SDS011;64447;52.140;5.602;2023-07-24T13:31:54;8.50;;;6.15;;
35592;SDS011;64447;52.140;5.602;2023-07-24T13:37:42;10.25;;;8.13;;
35592;SDS011;64447;52.140;5.602;2023-07-24T13:40:08;9.80;;;8.80;;
35592;SDS011;64447;52.140;5.602;2023-07-24T13:42:34;11.57;;;9.77;;
